This is the latest recevied weather packets stored in our database for station/object EA5JMY-10. If no packets are shown the sender has not sent any weather packets the latest 10 day(s).
| Time | Temp. | Humidity | Pressure | Rain* | Wind** | Luminosity | Snow |
|---|---|---|---|---|---|---|---|
| 1777367118 | 25° C | 44% | 1016.7 hPa | - | - | - | - |
| 1777366218 | 23.33° C | 48% | 1016.7 hPa | - | - | - | - |
| 1777365318 | 23.33° C | 49% | 1016.8 hPa | - | - | - | - |
| 1777364417 | 23.89° C | 47% | 1016.8 hPa | - | - | - | - |
| 1777363517 | 21.67° C | 54% | 1016.7 hPa | - | - | - | - |
| 1777362617 | 25° C | 45% | 1016.7 hPa | - | - | - | - |
| 1777361717 | 24.44° C | 45% | 1017 hPa | - | - | - | - |
| 1777360817 | 22.22° C | 51% | 1017.2 hPa | - | - | - | - |
| 1777359917 | 24.44° C | 45% | 1017 hPa | - | - | - | - |
| 1777359017 | 22.22° C | 50% | 1016.8 hPa | - | - | - | - |
| 1777358117 | 22.22° C | 51% | 1016.8 hPa | - | - | - | - |
| 1777357217 | 21.11° C | 53% | 1016.7 hPa | - | - | - | - |
| 1777356316 | 19.44° C | 57% | 1016.7 hPa | - | - | - | - |
| 1777354516 | 17.22° C | 65% | 1016.4 hPa | - | - | - | - |
| 1777353616 | 15.56° C | 72% | 1016.5 hPa | - | - | - | - |
| 1777352716 | 15° C | 72% | 1016.5 hPa | - | - | - | - |
| 1777351816 | 15.56° C | 72% | 1016.4 hPa | - | - | - | - |
| 1777350916 | 15° C | 72% | 1016.2 hPa | - | - | - | - |
| 1777350016 | 16.11° C | 72% | 1016.2 hPa | - | - | - | - |
| 1777349116 | 15.56° C | 73% | 1016.4 hPa | - | - | - | - |
| 1777348215 | 15.56° C | 72% | 1016.4 hPa | - | - | - | - |
| 1777347315 | 15.56° C | 72% | 1016.5 hPa | - | - | - | - |
| 1777346415 | 15.56° C | 71% | 1016.7 hPa | - | - | - | - |
| 1777345515 | 16.11° C | 72% | 1016.8 hPa | - | - | - | - |
| 1777344615 | 16.11° C | 72% | 1016.8 hPa | - | - | - | - |
* Rain since midnight (hover to see other rain measurements)
** Current wind speed in m/s (hover to see current wind gust speed)